sensor_id;sensor_type;location;lat;lon;timestamp;P1;durP1;ratioP1;P2;durP2;ratioP2
1747;SDS011;871;47.034;15.394;2023-08-12T00:00:31;32.03;;;7.90;;
1747;SDS011;871;47.034;15.394;2023-08-12T00:02:57;32.50;;;8.40;;
1747;SDS011;871;47.034;15.394;2023-08-12T00:05:23;32.40;;;7.90;;
1747;SDS011;871;47.034;15.394;2023-08-12T00:07:49;31.60;;;7.97;;
1747;SDS011;871;47.034;15.394;2023-08-12T00:10:15;31.80;;;8.47;;
1747;SDS011;871;47.034;15.394;2023-08-12T00:12:42;32.10;;;8.37;;
1747;SDS011;871;47.034;15.394;2023-08-12T00:15:09;30.33;;;8.57;;
1747;SDS011;871;47.034;15.394;2023-08-12T00:17:36;31.40;;;8.53;;
1747;SDS011;871;47.034;15.394;2023-08-12T00:20:03;30.50;;;9.00;;
1747;SDS011;871;47.034;15.394;2023-08-12T00:22:36;31.67;;;9.60;;
1747;SDS011;871;47.034;15.394;2023-08-12T00:25:02;34.00;;;9.63;;
1747;SDS011;871;47.034;15.394;2023-08-12T00:27:28;30.47;;;9.20;;
1747;SDS011;871;47.034;15.394;2023-08-12T00:29:56;30.37;;;9.27;;
1747;SDS011;871;47.034;15.394;2023-08-12T00:32:22;31.77;;;8.30;;
1747;SDS011;871;47.034;15.394;2023-08-12T00:34:48;31.77;;;8.33;;
1747;SDS011;871;47.034;15.394;2023-08-12T00:37:14;33.90;;;8.83;;
1747;SDS011;871;47.034;15.394;2023-08-12T00:39:40;33.40;;;8.60;;
1747;SDS011;871;47.034;15.394;2023-08-12T00:42:07;30.90;;;8.87;;
1747;SDS011;871;47.034;15.394;2023-08-12T00:44:33;29.97;;;9.00;;
1747;SDS011;871;47.034;15.394;2023-08-12T00:46:59;32.90;;;8.93;;
1747;SDS011;871;47.034;15.394;2023-08-12T00:49:26;31.87;;;8.57;;
1747;SDS011;871;47.034;15.394;2023-08-12T00:51:53;31.10;;;8.30;;
1747;SDS011;871;47.034;15.394;2023-08-12T00:54:20;32.00;;;8.40;;
1747;SDS011;871;47.034;15.394;2023-08-12T00:56:48;31.50;;;8.40;;
1747;SDS011;871;47.034;15.394;2023-08-12T00:59:15;32.60;;;9.30;;
1747;SDS011;871;47.034;15.394;2023-08-12T01:01:43;31.80;;;8.60;;
1747;SDS011;871;47.034;15.394;2023-08-12T01:04:10;29.73;;;8.50;;
1747;SDS011;871;47.034;15.394;2023-08-12T01:06:36;28.93;;;8.53;;
1747;SDS011;871;47.034;15.394;2023-08-12T01:09:02;29.93;;;8.17;;
1747;SDS011;871;47.034;15.394;2023-08-12T01:11:39;28.30;;;7.47;;
1747;SDS011;871;47.034;15.394;2023-08-12T01:16:57;34.10;;;7.60;;
1747;SDS011;871;47.034;15.394;2023-08-12T01:19:35;34.40;;;8.10;;
1747;SDS011;871;47.034;15.394;2023-08-12T01:22:02;31.57;;;8.00;;
1747;SDS011;871;47.034;15.394;2023-08-12T01:24:35;32.20;;;8.03;;
1747;SDS011;871;47.034;15.394;2023-08-12T01:27:01;33.17;;;6.93;;
1747;SDS011;871;47.034;15.394;2023-08-12T01:29:27;30.80;;;7.73;;
1747;SDS011;871;47.034;15.394;2023-08-12T01:31:55;32.80;;;8.57;;
1747;SDS011;871;47.034;15.394;2023-08-12T01:34:35;31.73;;;8.93;;
1747;SDS011;871;47.034;15.394;2023-08-12T01:37:05;31.73;;;8.50;;
1747;SDS011;871;47.034;15.394;2023-08-12T01:39:32;30.43;;;8.13;;
1747;SDS011;871;47.034;15.394;2023-08-12T01:41:59;35.73;;;8.47;;
1747;SDS011;871;47.034;15.394;2023-08-12T01:44:27;33.43;;;8.20;;
1747;SDS011;871;47.034;15.394;2023-08-12T01:46:53;31.17;;;7.73;;
1747;SDS011;871;47.034;15.394;2023-08-12T01:49:19;31.30;;;8.40;;
1747;SDS011;871;47.034;15.394;2023-08-12T01:51:45;30.40;;;7.57;;
1747;SDS011;871;47.034;15.394;2023-08-12T01:54:11;33.33;;;8.83;;
1747;SDS011;871;47.034;15.394;2023-08-12T01:56:37;29.70;;;8.30;;
1747;SDS011;871;47.034;15.394;2023-08-12T01:59:03;29.67;;;9.03;;
1747;SDS011;871;47.034;15.394;2023-08-12T02:01:29;28.67;;;7.77;;
1747;SDS011;871;47.034;15.394;2023-08-12T02:03:56;30.50;;;7.60;;
1747;SDS011;871;47.034;15.394;2023-08-12T02:06:22;30.53;;;8.20;;
1747;SDS011;871;47.034;15.394;2023-08-12T02:08:48;30.93;;;8.87;;
1747;SDS011;871;47.034;15.394;2023-08-12T02:11:15;30.40;;;8.70;;
1747;SDS011;871;47.034;15.394;2023-08-12T02:13:41;30.67;;;8.63;;
1747;SDS011;871;47.034;15.394;2023-08-12T02:16:07;32.60;;;9.30;;
1747;SDS011;871;47.034;15.394;2023-08-12T02:18:34;32.50;;;8.40;;
1747;SDS011;871;47.034;15.394;2023-08-12T02:21:00;31.23;;;8.70;;
1747;SDS011;871;47.034;15.394;2023-08-12T02:23:26;30.90;;;8.90;;
1747;SDS011;871;47.034;15.394;2023-08-12T02:25:53;31.30;;;8.37;;
1747;SDS011;871;47.034;15.394;2023-08-12T02:28:19;30.70;;;8.00;;
1747;SDS011;871;47.034;15.394;2023-08-12T02:30:45;31.70;;;8.30;;
1747;SDS011;871;47.034;15.394;2023-08-12T02:33:13;30.70;;;8.20;;
1747;SDS011;871;47.034;15.394;2023-08-12T02:35:39;30.87;;;9.03;;
1747;SDS011;871;47.034;15.394;2023-08-12T02:38:05;31.20;;;8.93;;
1747;SDS011;871;47.034;15.394;2023-08-12T02:40:31;30.10;;;8.50;;
1747;SDS011;871;47.034;15.394;2023-08-12T02:42:57;29.60;;;8.90;;
1747;SDS011;871;47.034;15.394;2023-08-12T02:45:23;27.60;;;8.33;;
1747;SDS011;871;47.034;15.394;2023-08-12T02:47:49;30.83;;;8.87;;
1747;SDS011;871;47.034;15.394;2023-08-12T02:50:15;28.70;;;8.30;;
1747;SDS011;871;47.034;15.394;2023-08-12T02:52:41;27.83;;;8.20;;
1747;SDS011;871;47.034;15.394;2023-08-12T02:55:07;28.07;;;9.37;;
1747;SDS011;871;47.034;15.394;2023-08-12T02:57:34;28.37;;;9.23;;
1747;SDS011;871;47.034;15.394;2023-08-12T03:00:00;28.47;;;9.10;;
1747;SDS011;871;47.034;15.394;2023-08-12T03:02:26;29.83;;;9.30;;
1747;SDS011;871;47.034;15.394;2023-08-12T03:04:52;29.33;;;9.23;;
1747;SDS011;871;47.034;15.394;2023-08-12T03:07:19;27.93;;;9.33;;
1747;SDS011;871;47.034;15.394;2023-08-12T03:09:45;28.63;;;9.30;;
1747;SDS011;871;47.034;15.394;2023-08-12T03:12:11;27.10;;;9.43;;
1747;SDS011;871;47.034;15.394;2023-08-12T03:14:38;28.17;;;9.63;;
1747;SDS011;871;47.034;15.394;2023-08-12T03:17:04;29.00;;;9.97;;
1747;SDS011;871;47.034;15.394;2023-08-12T03:19:30;29.93;;;9.83;;
1747;SDS011;871;47.034;15.394;2023-08-12T03:21:56;29.00;;;8.83;;
1747;SDS011;871;47.034;15.394;2023-08-12T03:24:23;28.67;;;9.50;;
1747;SDS011;871;47.034;15.394;2023-08-12T03:26:49;28.80;;;8.90;;
1747;SDS011;871;47.034;15.394;2023-08-12T03:29:15;30.80;;;9.07;;
1747;SDS011;871;47.034;15.394;2023-08-12T03:31:41;30.93;;;9.70;;
1747;SDS011;871;47.034;15.394;2023-08-12T03:34:07;31.07;;;9.63;;
1747;SDS011;871;47.034;15.394;2023-08-12T03:36:33;34.87;;;10.50;;
1747;SDS011;871;47.034;15.394;2023-08-12T03:38:59;31.17;;;10.60;;
1747;SDS011;871;47.034;15.394;2023-08-12T03:41:25;30.40;;;10.47;;
1747;SDS011;871;47.034;15.394;2023-08-12T03:43:51;30.50;;;10.03;;
1747;SDS011;871;47.034;15.394;2023-08-12T03:46:17;31.40;;;10.13;;
1747;SDS011;871;47.034;15.394;2023-08-12T03:48:43;33.93;;;10.77;;
1747;SDS011;871;47.034;15.394;2023-08-12T03:51:09;30.77;;;10.50;;
1747;SDS011;871;47.034;15.394;2023-08-12T03:53:35;28.80;;;10.63;;
1747;SDS011;871;47.034;15.394;2023-08-12T03:56:01;26.87;;;9.57;;
1747;SDS011;871;47.034;15.394;2023-08-12T03:58:27;27.00;;;10.03;;
1747;SDS011;871;47.034;15.394;2023-08-12T04:00:53;28.00;;;9.30;;
1747;SDS011;871;47.034;15.394;2023-08-12T04:03:19;29.70;;;10.00;;
1747;SDS011;871;47.034;15.394;2023-08-12T04:05:49;32.50;;;10.63;;
1747;SDS011;871;47.034;15.394;2023-08-12T04:08:17;30.60;;;10.13;;
1747;SDS011;871;47.034;15.394;2023-08-12T04:10:46;30.17;;;9.90;;
1747;SDS011;871;47.034;15.394;2023-08-12T04:13:14;31.10;;;10.60;;
1747;SDS011;871;47.034;15.394;2023-08-12T04:15:40;28.60;;;9.37;;
1747;SDS011;871;47.034;15.394;2023-08-12T04:18:08;30.90;;;10.73;;
1747;SDS011;871;47.034;15.394;2023-08-12T04:20:34;28.90;;;10.20;;
1747;SDS011;871;47.034;15.394;2023-08-12T04:23:00;30.90;;;10.00;;
1747;SDS011;871;47.034;15.394;2023-08-12T04:25:26;28.73;;;10.40;;
1747;SDS011;871;47.034;15.394;2023-08-12T04:27:52;34.23;;;10.50;;
1747;SDS011;871;47.034;15.394;2023-08-12T04:30:20;29.87;;;10.60;;
1747;SDS011;871;47.034;15.394;2023-08-12T04:32:46;30.57;;;10.50;;
1747;SDS011;871;47.034;15.394;2023-08-12T04:35:12;29.90;;;10.40;;
1747;SDS011;871;47.034;15.394;2023-08-12T04:37:39;28.77;;;10.70;;
1747;SDS011;871;47.034;15.394;2023-08-12T04:40:06;28.03;;;10.30;;
1747;SDS011;871;47.034;15.394;2023-08-12T04:42:33;30.70;;;10.73;;
1747;SDS011;871;47.034;15.394;2023-08-12T04:44:59;29.67;;;10.10;;
1747;SDS011;871;47.034;15.394;2023-08-12T04:47:25;31.70;;;10.80;;
1747;SDS011;871;47.034;15.394;2023-08-12T04:49:52;29.70;;;10.40;;
1747;SDS011;871;47.034;15.394;2023-08-12T04:52:18;29.53;;;10.40;;
1747;SDS011;871;47.034;15.394;2023-08-12T04:54:45;30.17;;;10.70;;
1747;SDS011;871;47.034;15.394;2023-08-12T04:57:11;29.90;;;10.13;;
1747;SDS011;871;47.034;15.394;2023-08-12T04:59:37;30.10;;;10.63;;
1747;SDS011;871;47.034;15.394;2023-08-12T05:02:03;29.47;;;9.63;;
1747;SDS011;871;47.034;15.394;2023-08-12T05:04:29;29.80;;;10.40;;
1747;SDS011;871;47.034;15.394;2023-08-12T05:06:55;30.27;;;10.20;;
1747;SDS011;871;47.034;15.394;2023-08-12T05:09:21;31.53;;;9.70;;
1747;SDS011;871;47.034;15.394;2023-08-12T05:11:47;31.40;;;9.63;;
1747;SDS011;871;47.034;15.394;2023-08-12T05:14:13;32.60;;;9.77;;
1747;SDS011;871;47.034;15.394;2023-08-12T05:16:39;34.17;;;9.93;;
1747;SDS011;871;47.034;15.394;2023-08-12T05:19:06;30.90;;;8.80;;
1747;SDS011;871;47.034;15.394;2023-08-12T05:21:32;30.93;;;8.87;;
1747;SDS011;871;47.034;15.394;2023-08-12T05:23:58;33.57;;;9.73;;
1747;SDS011;871;47.034;15.394;2023-08-12T05:26:25;32.23;;;9.30;;
1747;SDS011;871;47.034;15.394;2023-08-12T05:28:51;32.30;;;9.20;;
1747;SDS011;871;47.034;15.394;2023-08-12T05:31:17;34.83;;;9.60;;
1747;SDS011;871;47.034;15.394;2023-08-12T05:33:43;32.73;;;9.70;;
1747;SDS011;871;47.034;15.394;2023-08-12T05:36:09;35.87;;;8.70;;
1747;SDS011;871;47.034;15.394;2023-08-12T05:38:35;37.03;;;9.67;;
1747;SDS011;871;47.034;15.394;2023-08-12T05:41:01;37.40;;;8.83;;
1747;SDS011;871;47.034;15.394;2023-08-12T05:43:29;36.67;;;9.80;;
1747;SDS011;871;47.034;15.394;2023-08-12T05:45:55;36.77;;;8.53;;
1747;SDS011;871;47.034;15.394;2023-08-12T05:48:21;36.70;;;8.87;;
1747;SDS011;871;47.034;15.394;2023-08-12T05:50:47;37.67;;;9.00;;
1747;SDS011;871;47.034;15.394;2023-08-12T05:53:14;37.80;;;8.80;;
1747;SDS011;871;47.034;15.394;2023-08-12T05:55:40;40.57;;;9.90;;
1747;SDS011;871;47.034;15.394;2023-08-12T05:58:06;39.60;;;9.93;;
1747;SDS011;871;47.034;15.394;2023-08-12T06:00:32;43.67;;;10.37;;
1747;SDS011;871;47.034;15.394;2023-08-12T06:02:58;38.60;;;8.40;;
1747;SDS011;871;47.034;15.394;2023-08-12T06:05:24;40.97;;;8.90;;
1747;SDS011;871;47.034;15.394;2023-08-12T06:07:50;39.90;;;9.30;;
1747;SDS011;871;47.034;15.394;2023-08-12T06:10:17;42.03;;;9.27;;
1747;SDS011;871;47.034;15.394;2023-08-12T06:12:43;40.27;;;9.00;;
1747;SDS011;871;47.034;15.394;2023-08-12T06:15:09;40.13;;;10.13;;
1747;SDS011;871;47.034;15.394;2023-08-12T06:17:35;41.73;;;10.27;;
1747;SDS011;871;47.034;15.394;2023-08-12T06:20:01;43.43;;;10.30;;
1747;SDS011;871;47.034;15.394;2023-08-12T06:22:27;40.57;;;8.70;;
1747;SDS011;871;47.034;15.394;2023-08-12T06:24:53;40.70;;;8.87;;
1747;SDS011;871;47.034;15.394;2023-08-12T06:27:19;42.07;;;9.00;;
1747;SDS011;871;47.034;15.394;2023-08-12T06:29:46;39.83;;;7.47;;
1747;SDS011;871;47.034;15.394;2023-08-12T06:32:12;39.97;;;7.80;;
1747;SDS011;871;47.034;15.394;2023-08-12T06:34:39;42.10;;;9.17;;
1747;SDS011;871;47.034;15.394;2023-08-12T06:37:05;42.17;;;8.60;;
1747;SDS011;871;47.034;15.394;2023-08-12T06:39:31;41.40;;;8.60;;
1747;SDS011;871;47.034;15.394;2023-08-12T06:41:57;42.73;;;8.60;;
1747;SDS011;871;47.034;15.394;2023-08-12T06:44:24;41.73;;;8.70;;
1747;SDS011;871;47.034;15.394;2023-08-12T06:46:50;42.77;;;8.17;;
1747;SDS011;871;47.034;15.394;2023-08-12T06:49:16;44.13;;;8.03;;
1747;SDS011;871;47.034;15.394;2023-08-12T06:51:42;43.27;;;8.87;;
1747;SDS011;871;47.034;15.394;2023-08-12T06:54:08;43.70;;;8.77;;
1747;SDS011;871;47.034;15.394;2023-08-12T06:56:34;43.57;;;8.37;;
1747;SDS011;871;47.034;15.394;2023-08-12T06:59:00;43.17;;;8.70;;
1747;SDS011;871;47.034;15.394;2023-08-12T07:01:26;43.40;;;8.33;;
1747;SDS011;871;47.034;15.394;2023-08-12T07:03:52;44.10;;;8.50;;
1747;SDS011;871;47.034;15.394;2023-08-12T07:06:18;43.07;;;8.50;;
1747;SDS011;871;47.034;15.394;2023-08-12T07:08:44;43.37;;;8.33;;
1747;SDS011;871;47.034;15.394;2023-08-12T07:11:10;42.20;;;8.10;;
1747;SDS011;871;47.034;15.394;2023-08-12T07:13:36;43.23;;;7.50;;
1747;SDS011;871;47.034;15.394;2023-08-12T07:16:03;43.20;;;8.60;;
1747;SDS011;871;47.034;15.394;2023-08-12T07:18:29;42.73;;;7.57;;
1747;SDS011;871;47.034;15.394;2023-08-12T07:20:56;42.30;;;7.73;;
1747;SDS011;871;47.034;15.394;2023-08-12T07:23:23;42.50;;;7.93;;
1747;SDS011;871;47.034;15.394;2023-08-12T07:25:49;41.60;;;7.40;;
1747;SDS011;871;47.034;15.394;2023-08-12T07:28:15;42.70;;;8.03;;
1747;SDS011;871;47.034;15.394;2023-08-12T07:30:41;42.10;;;7.70;;
1747;SDS011;871;47.034;15.394;2023-08-12T07:33:07;44.30;;;7.67;;
1747;SDS011;871;47.034;15.394;2023-08-12T07:35:34;46.47;;;7.60;;
1747;SDS011;871;47.034;15.394;2023-08-12T07:38:01;42.87;;;8.10;;
1747;SDS011;871;47.034;15.394;2023-08-12T07:40:27;42.43;;;7.60;;
1747;SDS011;871;47.034;15.394;2023-08-12T07:42:53;44.10;;;7.47;;
1747;SDS011;871;47.034;15.394;2023-08-12T07:45:19;45.60;;;6.83;;
1747;SDS011;871;47.034;15.394;2023-08-12T07:47:45;42.87;;;6.80;;
1747;SDS011;871;47.034;15.394;2023-08-12T07:50:11;43.40;;;6.87;;
1747;SDS011;871;47.034;15.394;2023-08-12T07:52:37;41.70;;;6.60;;
1747;SDS011;871;47.034;15.394;2023-08-12T07:55:03;43.43;;;6.07;;
1747;SDS011;871;47.034;15.394;2023-08-12T07:57:30;46.90;;;6.77;;
1747;SDS011;871;47.034;15.394;2023-08-12T07:59:56;43.80;;;6.30;;
1747;SDS011;871;47.034;15.394;2023-08-12T08:02:22;43.37;;;6.27;;
1747;SDS011;871;47.034;15.394;2023-08-12T08:04:48;42.80;;;6.00;;
1747;SDS011;871;47.034;15.394;2023-08-12T08:07:14;43.40;;;6.03;;
1747;SDS011;871;47.034;15.394;2023-08-12T08:09:41;42.37;;;6.43;;
1747;SDS011;871;47.034;15.394;2023-08-12T08:12:07;42.87;;;6.30;;
1747;SDS011;871;47.034;15.394;2023-08-12T08:14:33;49.90;;;7.20;;
1747;SDS011;871;47.034;15.394;2023-08-12T08:17:00;42.40;;;6.53;;
1747;SDS011;871;47.034;15.394;2023-08-12T08:19:27;43.80;;;6.40;;
1747;SDS011;871;47.034;15.394;2023-08-12T08:21:53;42.40;;;6.43;;
1747;SDS011;871;47.034;15.394;2023-08-12T08:24:19;43.10;;;6.27;;
1747;SDS011;871;47.034;15.394;2023-08-12T08:26:45;43.80;;;6.17;;
1747;SDS011;871;47.034;15.394;2023-08-12T08:29:12;45.10;;;6.73;;
1747;SDS011;871;47.034;15.394;2023-08-12T08:31:38;43.43;;;6.10;;
1747;SDS011;871;47.034;15.394;2023-08-12T08:34:04;47.67;;;6.00;;
1747;SDS011;871;47.034;15.394;2023-08-12T08:36:30;43.37;;;7.00;;
1747;SDS011;871;47.034;15.394;2023-08-12T08:38:56;42.80;;;6.93;;
1747;SDS011;871;47.034;15.394;2023-08-12T08:41:22;43.27;;;6.27;;
1747;SDS011;871;47.034;15.394;2023-08-12T08:43:49;42.60;;;6.53;;
1747;SDS011;871;47.034;15.394;2023-08-12T08:46:15;44.30;;;6.87;;
1747;SDS011;871;47.034;15.394;2023-08-12T08:48:44;43.57;;;6.13;;
1747;SDS011;871;47.034;15.394;2023-08-12T08:51:12;42.10;;;5.73;;
1747;SDS011;871;47.034;15.394;2023-08-12T08:53:38;42.10;;;5.80;;
1747;SDS011;871;47.034;15.394;2023-08-12T08:56:05;40.63;;;4.90;;
1747;SDS011;871;47.034;15.394;2023-08-12T08:58:32;42.53;;;5.63;;
1747;SDS011;871;47.034;15.394;2023-08-12T09:00:58;43.37;;;6.03;;
1747;SDS011;871;47.034;15.394;2023-08-12T09:03:25;41.63;;;5.30;;
1747;SDS011;871;47.034;15.394;2023-08-12T09:05:52;42.37;;;5.60;;
1747;SDS011;871;47.034;15.394;2023-08-12T09:08:20;42.13;;;5.63;;
1747;SDS011;871;47.034;15.394;2023-08-12T09:10:46;42.27;;;5.57;;
1747;SDS011;871;47.034;15.394;2023-08-12T09:13:13;43.30;;;5.10;;
1747;SDS011;871;47.034;15.394;2023-08-12T09:15:40;43.07;;;5.23;;
1747;SDS011;871;47.034;15.394;2023-08-12T09:18:06;41.60;;;5.00;;
1747;SDS011;871;47.034;15.394;2023-08-12T09:20:33;41.97;;;5.47;;
1747;SDS011;871;47.034;15.394;2023-08-12T09:22:59;41.57;;;5.60;;
1747;SDS011;871;47.034;15.394;2023-08-12T09:25:27;42.77;;;6.27;;
1747;SDS011;871;47.034;15.394;2023-08-12T09:27:54;43.90;;;5.10;;
1747;SDS011;871;47.034;15.394;2023-08-12T09:30:22;42.40;;;5.63;;
1747;SDS011;871;47.034;15.394;2023-08-12T09:32:58;41.03;;;5.17;;
1747;SDS011;871;47.034;15.394;2023-08-12T09:35:36;45.10;;;5.17;;
1747;SDS011;871;47.034;15.394;2023-08-12T09:38:03;43.83;;;5.60;;
1747;SDS011;871;47.034;15.394;2023-08-12T09:40:30;42.30;;;5.30;;
1747;SDS011;871;47.034;15.394;2023-08-12T09:42:56;41.50;;;5.50;;
1747;SDS011;871;47.034;15.394;2023-08-12T09:45:23;41.23;;;5.40;;
1747;SDS011;871;47.034;15.394;2023-08-12T09:47:49;43.13;;;6.83;;
1747;SDS011;871;47.034;15.394;2023-08-12T09:50:16;41.87;;;6.50;;
1747;SDS011;871;47.034;15.394;2023-08-12T09:52:42;43.77;;;5.93;;
1747;SDS011;871;47.034;15.394;2023-08-12T09:55:08;43.97;;;6.63;;
1747;SDS011;871;47.034;15.394;2023-08-12T09:57:36;41.93;;;6.30;;
1747;SDS011;871;47.034;15.394;2023-08-12T10:00:05;43.37;;;7.47;;
1747;SDS011;871;47.034;15.394;2023-08-12T10:02:36;43.10;;;6.30;;
1747;SDS011;871;47.034;15.394;2023-08-12T10:05:03;44.50;;;6.43;;
1747;SDS011;871;47.034;15.394;2023-08-12T10:07:29;42.83;;;6.23;;
1747;SDS011;871;47.034;15.394;2023-08-12T10:09:55;42.87;;;6.50;;
1747;SDS011;871;47.034;15.394;2023-08-12T10:12:23;41.97;;;6.87;;
1747;SDS011;871;47.034;15.394;2023-08-12T10:14:50;42.43;;;6.47;;
1747;SDS011;871;47.034;15.394;2023-08-12T10:17:17;42.60;;;7.20;;
1747;SDS011;871;47.034;15.394;2023-08-12T10:19:44;44.40;;;7.33;;
1747;SDS011;871;47.034;15.394;2023-08-12T10:22:10;41.47;;;6.00;;
1747;SDS011;871;47.034;15.394;2023-08-12T10:24:36;49.87;;;11.23;;
1747;SDS011;871;47.034;15.394;2023-08-12T10:27:04;41.97;;;5.97;;
1747;SDS011;871;47.034;15.394;2023-08-12T10:29:31;42.80;;;6.70;;
1747;SDS011;871;47.034;15.394;2023-08-12T10:31:57;41.20;;;5.60;;
1747;SDS011;871;47.034;15.394;2023-08-12T10:34:24;46.37;;;6.10;;
1747;SDS011;871;47.034;15.394;2023-08-12T10:36:54;42.53;;;6.67;;
1747;SDS011;871;47.034;15.394;2023-08-12T10:39:26;42.80;;;5.90;;
1747;SDS011;871;47.034;15.394;2023-08-12T10:41:56;43.77;;;7.30;;
1747;SDS011;871;47.034;15.394;2023-08-12T10:44:26;43.30;;;5.90;;
1747;SDS011;871;47.034;15.394;2023-08-12T10:46:52;42.07;;;5.73;;
1747;SDS011;871;47.034;15.394;2023-08-12T10:49:19;45.17;;;6.60;;
1747;SDS011;871;47.034;15.394;2023-08-12T10:51:52;46.63;;;6.90;;
1747;SDS011;871;47.034;15.394;2023-08-12T10:54:22;42.37;;;6.70;;
1747;SDS011;871;47.034;15.394;2023-08-12T10:57:10;42.63;;;6.77;;
1747;SDS011;871;47.034;15.394;2023-08-12T11:02:18;44.33;;;6.40;;
1747;SDS011;871;47.034;15.394;2023-08-12T11:04:44;43.27;;;5.27;;
1747;SDS011;871;47.034;15.394;2023-08-12T11:07:47;44.00;;;6.57;;
1747;SDS011;871;47.034;15.394;2023-08-12T11:12:33;43.77;;;6.63;;
1747;SDS011;871;47.034;15.394;2023-08-12T11:15:00;44.47;;;7.23;;
1747;SDS011;871;47.034;15.394;2023-08-12T11:17:39;41.47;;;6.20;;
1747;SDS011;871;47.034;15.394;2023-08-12T11:20:07;44.20;;;6.27;;
1747;SDS011;871;47.034;15.394;2023-08-12T11:22:35;42.03;;;5.90;;
1747;SDS011;871;47.034;15.394;2023-08-12T11:25:02;41.37;;;5.70;;
1747;SDS011;871;47.034;15.394;2023-08-12T11:27:34;42.93;;;5.60;;
1747;SDS011;871;47.034;15.394;2023-08-12T11:30:01;41.60;;;5.10;;
1747;SDS011;871;47.034;15.394;2023-08-12T11:32:27;42.00;;;5.77;;
1747;SDS011;871;47.034;15.394;2023-08-12T11:34:53;41.87;;;5.60;;
1747;SDS011;871;47.034;15.394;2023-08-12T11:37:19;42.37;;;6.37;;
1747;SDS011;871;47.034;15.394;2023-08-12T11:39:45;41.83;;;5.70;;
1747;SDS011;871;47.034;15.394;2023-08-12T11:42:11;41.37;;;5.10;;
1747;SDS011;871;47.034;15.394;2023-08-12T11:44:39;41.90;;;6.10;;
1747;SDS011;871;47.034;15.394;2023-08-12T11:47:07;42.97;;;5.77;;
1747;SDS011;871;47.034;15.394;2023-08-12T11:49:33;41.60;;;5.80;;
1747;SDS011;871;47.034;15.394;2023-08-12T11:51:59;41.47;;;6.33;;
1747;SDS011;871;47.034;15.394;2023-08-12T11:54:25;45.20;;;6.03;;
1747;SDS011;871;47.034;15.394;2023-08-12T11:56:51;44.00;;;5.90;;
1747;SDS011;871;47.034;15.394;2023-08-12T11:59:23;41.63;;;5.53;;
1747;SDS011;871;47.034;15.394;2023-08-12T12:01:49;41.57;;;5.27;;
1747;SDS011;871;47.034;15.394;2023-08-12T12:04:15;41.20;;;5.00;;
1747;SDS011;871;47.034;15.394;2023-08-12T12:06:45;40.53;;;4.60;;
1747;SDS011;871;47.034;15.394;2023-08-12T12:09:11;42.67;;;5.50;;
1747;SDS011;871;47.034;15.394;2023-08-12T12:11:39;43.67;;;5.33;;
1747;SDS011;871;47.034;15.394;2023-08-12T12:14:06;41.47;;;5.20;;
1747;SDS011;871;47.034;15.394;2023-08-12T12:16:45;40.57;;;4.93;;
1747;SDS011;871;47.034;15.394;2023-08-12T12:19:15;48.43;;;5.37;;
1747;SDS011;871;47.034;15.394;2023-08-12T12:21:42;42.37;;;5.20;;
1747;SDS011;871;47.034;15.394;2023-08-12T12:24:08;41.43;;;5.10;;
1747;SDS011;871;47.034;15.394;2023-08-12T12:26:35;43.30;;;5.63;;
1747;SDS011;871;47.034;15.394;2023-08-12T12:29:02;44.00;;;4.90;;
1747;SDS011;871;47.034;15.394;2023-08-12T12:31:28;44.77;;;5.70;;
1747;SDS011;871;47.034;15.394;2023-08-12T12:33:54;43.00;;;5.70;;
1747;SDS011;871;47.034;15.394;2023-08-12T12:36:20;43.58;;;4.45;;
1747;SDS011;871;47.034;15.394;2023-08-12T12:38:47;40.80;;;4.93;;
1747;SDS011;871;47.034;15.394;2023-08-12T12:41:13;41.73;;;5.53;;
1747;SDS011;871;47.034;15.394;2023-08-12T12:43:39;41.80;;;5.30;;
1747;SDS011;871;47.034;15.394;2023-08-12T12:46:05;41.77;;;4.90;;
1747;SDS011;871;47.034;15.394;2023-08-12T12:48:32;43.53;;;5.70;;
1747;SDS011;871;47.034;15.394;2023-08-12T12:50:58;42.03;;;4.57;;
1747;SDS011;871;47.034;15.394;2023-08-12T12:53:24;41.63;;;4.70;;
1747;SDS011;871;47.034;15.394;2023-08-12T12:55:50;40.60;;;4.23;;
1747;SDS011;871;47.034;15.394;2023-08-12T12:58:17;41.87;;;4.93;;
1747;SDS011;871;47.034;15.394;2023-08-12T13:00:43;40.40;;;4.50;;
1747;SDS011;871;47.034;15.394;2023-08-12T13:03:09;41.60;;;5.37;;
1747;SDS011;871;47.034;15.394;2023-08-12T13:05:35;41.30;;;5.10;;
1747;SDS011;871;47.034;15.394;2023-08-12T13:08:01;41.27;;;5.17;;
1747;SDS011;871;47.034;15.394;2023-08-12T13:10:27;42.73;;;5.30;;
1747;SDS011;871;47.034;15.394;2023-08-12T13:12:53;41.20;;;4.80;;
1747;SDS011;871;47.034;15.394;2023-08-12T13:15:19;41.73;;;5.37;;
1747;SDS011;871;47.034;15.394;2023-08-12T13:17:45;41.77;;;5.20;;
1747;SDS011;871;47.034;15.394;2023-08-12T13:20:11;42.60;;;5.83;;
1747;SDS011;871;47.034;15.394;2023-08-12T13:22:37;41.13;;;5.00;;
1747;SDS011;871;47.034;15.394;2023-08-12T13:25:03;40.93;;;4.87;;
1747;SDS011;871;47.034;15.394;2023-08-12T13:27:31;40.70;;;4.77;;
1747;SDS011;871;47.034;15.394;2023-08-12T13:29:58;41.20;;;4.90;;
1747;SDS011;871;47.034;15.394;2023-08-12T13:32:24;41.70;;;4.77;;
1747;SDS011;871;47.034;15.394;2023-08-12T13:34:52;51.40;;;5.83;;
1747;SDS011;871;47.034;15.394;2023-08-12T13:37:18;42.90;;;4.80;;
1747;SDS011;871;47.034;15.394;2023-08-12T13:39:44;41.80;;;5.00;;
1747;SDS011;871;47.034;15.394;2023-08-12T13:42:10;41.07;;;5.07;;
1747;SDS011;871;47.034;15.394;2023-08-12T13:44:36;41.07;;;5.10;;
1747;SDS011;871;47.034;15.394;2023-08-12T13:47:02;41.73;;;4.40;;
1747;SDS011;871;47.034;15.394;2023-08-12T13:49:28;41.30;;;4.90;;
1747;SDS011;871;47.034;15.394;2023-08-12T13:51:54;43.03;;;4.73;;
1747;SDS011;871;47.034;15.394;2023-08-12T13:54:20;41.80;;;4.73;;
1747;SDS011;871;47.034;15.394;2023-08-12T13:56:46;40.70;;;4.20;;
1747;SDS011;871;47.034;15.394;2023-08-12T13:59:12;40.73;;;4.27;;
1747;SDS011;871;47.034;15.394;2023-08-12T14:01:38;39.80;;;3.80;;
1747;SDS011;871;47.034;15.394;2023-08-12T14:04:05;42.80;;;4.53;;
1747;SDS011;871;47.034;15.394;2023-08-12T14:06:31;40.60;;;4.30;;
1747;SDS011;871;47.034;15.394;2023-08-12T14:08:58;40.07;;;4.00;;
1747;SDS011;871;47.034;15.394;2023-08-12T14:11:25;43.07;;;5.00;;
1747;SDS011;871;47.034;15.394;2023-08-12T14:13:51;40.63;;;4.30;;
1747;SDS011;871;47.034;15.394;2023-08-12T14:16:17;39.87;;;3.87;;
1747;SDS011;871;47.034;15.394;2023-08-12T14:18:43;40.90;;;4.30;;
1747;SDS011;871;47.034;15.394;2023-08-12T14:21:09;40.00;;;3.87;;
1747;SDS011;871;47.034;15.394;2023-08-12T14:23:36;40.73;;;4.73;;
1747;SDS011;871;47.034;15.394;2023-08-12T14:26:02;40.53;;;4.50;;
1747;SDS011;871;47.034;15.394;2023-08-12T14:28:28;41.40;;;4.60;;
1747;SDS011;871;47.034;15.394;2023-08-12T14:30:54;42.50;;;4.23;;
1747;SDS011;871;47.034;15.394;2023-08-12T14:33:20;40.37;;;4.27;;
1747;SDS011;871;47.034;15.394;2023-08-12T14:35:49;41.17;;;4.40;;
1747;SDS011;871;47.034;15.394;2023-08-12T14:38:16;42.00;;;4.90;;
1747;SDS011;871;47.034;15.394;2023-08-12T14:40:45;40.03;;;3.90;;
